sensor_id;sensor_type;location;lat;lon;timestamp;pressure;altitude;pressure_sealevel;temperature
37452;BMP280;23314;51.114;6.900;2023-08-07T00:00:21;100901.72;;;15.54
37452;BMP280;23314;51.114;6.900;2023-08-07T00:02:47;100896.47;;;15.51
37452;BMP280;23314;51.114;6.900;2023-08-07T00:05:12;100896.47;;;15.51
37452;BMP280;23314;51.114;6.900;2023-08-07T00:07:38;100901.41;;;15.52
37452;BMP280;23314;51.114;6.900;2023-08-07T00:10:04;100893.47;;;15.49
37452;BMP280;23314;51.114;6.900;2023-08-07T00:12:29;100905.22;;;15.42
37452;BMP280;23314;51.114;6.900;2023-08-07T00:14:54;100910.41;;;15.36
37452;BMP280;23314;51.114;6.900;2023-08-07T00:17:23;100921.56;;;15.35
37452;BMP280;23314;51.114;6.900;2023-08-07T00:19:48;100914.03;;;15.30
37452;BMP280;23314;51.114;6.900;2023-08-07T00:22:14;100915.00;;;15.23
37452;BMP280;23314;51.114;6.900;2023-08-07T00:24:39;100907.06;;;15.19
37452;BMP280;23314;51.114;6.900;2023-08-07T00:27:05;100914.47;;;15.15
37452;BMP280;23314;51.114;6.900;2023-08-07T00:29:32;100912.66;;;15.12
37452;BMP280;23314;51.114;6.900;2023-08-07T00:32:00;100912.31;;;15.10
37452;BMP280;23314;51.114;6.900;2023-08-07T00:34:26;100918.13;;;15.09
37452;BMP280;23314;51.114;6.900;2023-08-07T00:36:51;100912.53;;;15.03
37452;BMP280;23314;51.114;6.900;2023-08-07T00:39:16;100915.97;;;15.03
37452;BMP280;23314;51.114;6.900;2023-08-07T00:41:42;100914.94;;;15.01
37452;BMP280;23314;51.114;6.900;2023-08-07T00:44:07;100917.16;;;15.02
37452;BMP280;23314;51.114;6.900;2023-08-07T00:46:32;100919.75;;;15.06
37452;BMP280;23314;51.114;6.900;2023-08-07T00:48:58;100910.50;;;15.07
37452;BMP280;23314;51.114;6.900;2023-08-07T00:51:23;100930.50;;;15.06
37452;BMP280;23314;51.114;6.900;2023-08-07T00:53:49;100921.34;;;15.03
37452;BMP280;23314;51.114;6.900;2023-08-07T00:56:15;100921.88;;;14.98
37452;BMP280;23314;51.114;6.900;2023-08-07T00:58:40;100927.06;;;14.93
37452;BMP280;23314;51.114;6.900;2023-08-07T01:01:06;100924.38;;;14.93
37452;BMP280;23314;51.114;6.900;2023-08-07T01:03:31;100930.16;;;14.91
37452;BMP280;23314;51.114;6.900;2023-08-07T01:05:57;100937.69;;;14.83
37452;BMP280;23314;51.114;6.900;2023-08-07T01:08:23;100933.69;;;14.75
37452;BMP280;23314;51.114;6.900;2023-08-07T01:13:51;100933.88;;;14.68
37452;BMP280;23314;51.114;6.900;2023-08-07T01:16:57;100930.16;;;14.65
37452;BMP280;23314;51.114;6.900;2023-08-07T01:19:27;100924.84;;;14.62
37452;BMP280;23314;51.114;6.900;2023-08-07T01:24:31;100932.38;;;14.67
37452;BMP280;23314;51.114;6.900;2023-08-07T01:30:09;100928.00;;;14.73
37452;BMP280;23314;51.114;6.900;2023-08-07T01:35:16;100932.94;;;14.75
37452;BMP280;23314;51.114;6.900;2023-08-07T01:37:42;100936.78;;;14.74
37452;BMP280;23314;51.114;6.900;2023-08-07T01:40:10;100941.75;;;14.75
37452;BMP280;23314;51.114;6.900;2023-08-07T01:42:36;100930.59;;;14.77
37452;BMP280;23314;51.114;6.900;2023-08-07T01:45:04;100934.75;;;14.78
37452;BMP280;23314;51.114;6.900;2023-08-07T01:47:29;100936.72;;;14.77
37452;BMP280;23314;51.114;6.900;2023-08-07T01:49:54;100941.19;;;14.80
37452;BMP280;23314;51.114;6.900;2023-08-07T01:52:20;100949.25;;;14.80
37452;BMP280;23314;51.114;6.900;2023-08-07T01:54:46;100943.88;;;14.80
37452;BMP280;23314;51.114;6.900;2023-08-07T01:57:11;100944.66;;;14.81
37452;BMP280;23314;51.114;6.900;2023-08-07T01:59:36;100945.41;;;14.81
37452;BMP280;23314;51.114;6.900;2023-08-07T02:02:02;100942.31;;;14.83
37452;BMP280;23314;51.114;6.900;2023-08-07T02:04:27;100945.00;;;14.83
37452;BMP280;23314;51.114;6.900;2023-08-07T02:06:52;100948.72;;;14.85
37452;BMP280;23314;51.114;6.900;2023-08-07T02:09:22;100972.16;;;14.85
37452;BMP280;23314;51.114;6.900;2023-08-07T02:11:48;100965.50;;;14.77
37452;BMP280;23314;51.114;6.900;2023-08-07T02:14:13;100959.56;;;14.69
37452;BMP280;23314;51.114;6.900;2023-08-07T02:16:38;100965.78;;;14.66
37452;BMP280;23314;51.114;6.900;2023-08-07T02:19:03;100969.44;;;14.59
37452;BMP280;23314;51.114;6.900;2023-08-07T02:21:29;100953.50;;;14.52
37452;BMP280;23314;51.114;6.900;2023-08-07T02:23:54;100967.75;;;14.49
37452;BMP280;23314;51.114;6.900;2023-08-07T02:26:19;100958.72;;;14.43
37452;BMP280;23314;51.114;6.900;2023-08-07T02:28:45;100955.75;;;14.41
37452;BMP280;23314;51.114;6.900;2023-08-07T02:31:10;100973.31;;;14.42
37452;BMP280;23314;51.114;6.900;2023-08-07T02:33:35;100961.09;;;14.41
37452;BMP280;23314;51.114;6.900;2023-08-07T02:36:00;100964.19;;;14.39
37452;BMP280;23314;51.114;6.900;2023-08-07T02:38:26;100961.50;;;14.39
37452;BMP280;23314;51.114;6.900;2023-08-07T02:40:51;100942.31;;;14.41
37452;BMP280;23314;51.114;6.900;2023-08-07T02:43:16;100958.16;;;14.35
37452;BMP280;23314;51.114;6.900;2023-08-07T02:45:42;100962.47;;;14.32
37452;BMP280;23314;51.114;6.900;2023-08-07T02:48:07;100970.91;;;14.31
37452;BMP280;23314;51.114;6.900;2023-08-07T02:50:33;100959.53;;;14.27
37452;BMP280;23314;51.114;6.900;2023-08-07T02:52:59;100961.13;;;14.24
37452;BMP280;23314;51.114;6.900;2023-08-07T02:55:24;100950.38;;;14.24
37452;BMP280;23314;51.114;6.900;2023-08-07T02:57:50;100970.69;;;14.25
37452;BMP280;23314;51.114;6.900;2023-08-07T03:00:15;100959.19;;;14.25
37452;BMP280;23314;51.114;6.900;2023-08-07T03:02:40;100971.09;;;14.24
37452;BMP280;23314;51.114;6.900;2023-08-07T03:05:06;100972.28;;;14.23
37452;BMP280;23314;51.114;6.900;2023-08-07T03:07:32;100965.41;;;14.22
37452;BMP280;23314;51.114;6.900;2023-08-07T03:09:58;100965.41;;;14.22
37452;BMP280;23314;51.114;6.900;2023-08-07T03:12:23;100957.78;;;14.20
37452;BMP280;23314;51.114;6.900;2023-08-07T03:14:49;100964.31;;;14.19
37452;BMP280;23314;51.114;6.900;2023-08-07T03:17:14;100959.06;;;14.15
37452;BMP280;23314;51.114;6.900;2023-08-07T03:19:42;100952.84;;;14.18
37452;BMP280;23314;51.114;6.900;2023-08-07T03:22:07;100961.22;;;14.20
37452;BMP280;23314;51.114;6.900;2023-08-07T03:24:33;100958.13;;;14.22
37452;BMP280;23314;51.114;6.900;2023-08-07T03:26:58;100955.75;;;14.24
37452;BMP280;23314;51.114;6.900;2023-08-07T03:29:23;100969.94;;;14.25
37452;BMP280;23314;51.114;6.900;2023-08-07T03:31:49;100968.75;;;14.26
37452;BMP280;23314;51.114;6.900;2023-08-07T03:34:14;100965.66;;;14.27
37452;BMP280;23314;51.114;6.900;2023-08-07T03:36:39;100964.38;;;14.32
37452;BMP280;23314;51.114;6.900;2023-08-07T03:39:05;100970.84;;;14.34
37452;BMP280;23314;51.114;6.900;2023-08-07T03:41:30;100977.78;;;14.32
37452;BMP280;23314;51.114;6.900;2023-08-07T03:43:55;100972.84;;;14.30
37452;BMP280;23314;51.114;6.900;2023-08-07T03:46:21;100970.16;;;14.30
37452;BMP280;23314;51.114;6.900;2023-08-07T03:48:46;100976.69;;;14.29
37452;BMP280;23314;51.114;6.900;2023-08-07T03:51:11;100971.34;;;14.29
37452;BMP280;23314;51.114;6.900;2023-08-07T03:53:37;100976.69;;;14.29
37452;BMP280;23314;51.114;6.900;2023-08-07T03:56:02;100985.53;;;14.30
37452;BMP280;23314;51.114;6.900;2023-08-07T03:58:28;100987.44;;;14.29
37452;BMP280;23314;51.114;6.900;2023-08-07T04:00:53;100989.38;;;14.29
37452;BMP280;23314;51.114;6.900;2023-08-07T04:03:22;100989.69;;;14.31
37452;BMP280;23314;51.114;6.900;2023-08-07T04:05:51;100990.56;;;14.28
37452;BMP280;23314;51.114;6.900;2023-08-07T04:08:17;100986.69;;;14.29
37452;BMP280;23314;51.114;6.900;2023-08-07T04:10:42;100978.63;;;14.29
37452;BMP280;23314;51.114;6.900;2023-08-07T04:13:07;100980.91;;;14.30
37452;BMP280;23314;51.114;6.900;2023-08-07T04:15:33;100984.31;;;14.31
37452;BMP280;23314;51.114;6.900;2023-08-07T04:17:58;100981.63;;;14.31
37452;BMP280;23314;51.114;6.900;2023-08-07T04:20:24;100983.91;;;14.32
37452;BMP280;23314;51.114;6.900;2023-08-07T04:22:49;100982.63;;;14.37
37452;BMP280;23314;51.114;6.900;2023-08-07T04:25:15;100992.13;;;14.42
37452;BMP280;23314;51.114;6.900;2023-08-07T04:27:40;100985.16;;;14.44
37452;BMP280;23314;51.114;6.900;2023-08-07T04:30:06;101005.34;;;14.49
37452;BMP280;23314;51.114;6.900;2023-08-07T04:32:31;100991.53;;;14.50
37452;BMP280;23314;51.114;6.900;2023-08-07T04:34:57;100999.13;;;14.52
37452;BMP280;23314;51.114;6.900;2023-08-07T04:37:23;101003.56;;;14.59
37452;BMP280;23314;51.114;6.900;2023-08-07T04:39:48;100988.09;;;14.63
37452;BMP280;23314;51.114;6.900;2023-08-07T04:42:13;101000.69;;;14.66
37452;BMP280;23314;51.114;6.900;2023-08-07T04:44:38;100993.31;;;14.70
37452;BMP280;23314;51.114;6.900;2023-08-07T04:47:04;101004.03;;;14.70
37452;BMP280;23314;51.114;6.900;2023-08-07T04:49:30;101008.25;;;14.71
37452;BMP280;23314;51.114;6.900;2023-08-07T04:51:55;101012.41;;;14.72
37452;BMP280;23314;51.114;6.900;2023-08-07T04:54:20;101007.91;;;14.69
37452;BMP280;23314;51.114;6.900;2023-08-07T04:56:45;100991.78;;;14.69
37452;BMP280;23314;51.114;6.900;2023-08-07T04:59:11;101001.25;;;14.74
37452;BMP280;23314;51.114;6.900;2023-08-07T05:01:36;101007.91;;;14.69
37452;BMP280;23314;51.114;6.900;2023-08-07T05:04:02;101000.59;;;14.69
37452;BMP280;23314;51.114;6.900;2023-08-07T05:06:27;101003.53;;;14.75
37452;BMP280;23314;51.114;6.900;2023-08-07T05:08:52;100999.53;;;14.80
37452;BMP280;23314;51.114;6.900;2023-08-07T05:11:18;100999.38;;;14.87
37452;BMP280;23314;51.114;6.900;2023-08-07T05:13:45;101003.44;;;14.92
37452;BMP280;23314;51.114;6.900;2023-08-07T05:16:10;100999.25;;;14.91
37452;BMP280;23314;51.114;6.900;2023-08-07T05:18:36;101007.75;;;14.89
37452;BMP280;23314;51.114;6.900;2023-08-07T05:21:01;100998.47;;;14.90
37452;BMP280;23314;51.114;6.900;2023-08-07T05:23:27;100997.22;;;14.95
37452;BMP280;23314;51.114;6.900;2023-08-07T05:25:52;101004.00;;;14.99
37452;BMP280;23314;51.114;6.900;2023-08-07T05:28:17;101017.31;;;15.03
37452;BMP280;23314;51.114;6.900;2023-08-07T05:30:43;101002.69;;;15.04
37452;BMP280;23314;51.114;6.900;2023-08-07T05:33:08;101006.91;;;15.05
37452;BMP280;23314;51.114;6.900;2023-08-07T05:35:33;101010.34;;;15.06
37452;BMP280;23314;51.114;6.900;2023-08-07T05:37:58;101014.34;;;15.01
37452;BMP280;23314;51.114;6.900;2023-08-07T05:40:24;101011.94;;;15.03
37452;BMP280;23314;51.114;6.900;2023-08-07T05:42:50;101011.09;;;15.06
37452;BMP280;23314;51.114;6.900;2023-08-07T05:45:15;101018.06;;;15.03
37452;BMP280;23314;51.114;6.900;2023-08-07T05:47:40;101017.25;;;15.07
37452;BMP280;23314;51.114;6.900;2023-08-07T05:50:06;101021.19;;;15.02
37452;BMP280;23314;51.114;6.900;2023-08-07T05:52:32;101027.84;;;14.97
37452;BMP280;23314;51.114;6.900;2023-08-07T05:54:57;101017.28;;;14.90
37452;BMP280;23314;51.114;6.900;2023-08-07T05:57:23;101020.72;;;14.91
37452;BMP280;23314;51.114;6.900;2023-08-07T05:59:48;101021.06;;;14.93
37452;BMP280;23314;51.114;6.900;2023-08-07T06:02:13;101017.53;;;14.96
37452;BMP280;23314;51.114;6.900;2023-08-07T06:04:38;101015.34;;;14.91
37452;BMP280;23314;51.114;6.900;2023-08-07T06:07:05;101019.97;;;14.90
37452;BMP280;23314;51.114;6.900;2023-08-07T06:09:31;101022.75;;;14.86
37452;BMP280;23314;51.114;6.900;2023-08-07T06:11:56;101017.81;;;14.85
37452;BMP280;23314;51.114;6.900;2023-08-07T06:14:21;101032.13;;;14.82
37452;BMP280;23314;51.114;6.900;2023-08-07T06:16:47;101020.25;;;14.79
37452;BMP280;23314;51.114;6.900;2023-08-07T06:19:12;101025.34;;;14.77
37452;BMP280;23314;51.114;6.900;2023-08-07T06:21:37;101023.84;;;14.76
37452;BMP280;23314;51.114;6.900;2023-08-07T06:24:03;101035.09;;;14.71
37452;BMP280;23314;51.114;6.900;2023-08-07T06:26:28;101038.09;;;14.73
37452;BMP280;23314;51.114;6.900;2023-08-07T06:28:54;101037.31;;;14.73
37452;BMP280;23314;51.114;6.900;2023-08-07T06:31:19;101045.06;;;14.70
37452;BMP280;23314;51.114;6.900;2023-08-07T06:33:44;101047.00;;;14.70
37452;BMP280;23314;51.114;6.900;2023-08-07T06:36:10;101054.28;;;14.69
37452;BMP280;23314;51.114;6.900;2023-08-07T06:38:35;101053.88;;;14.71
37452;BMP280;23314;51.114;6.900;2023-08-07T06:41:01;101056.88;;;14.73
37452;BMP280;23314;51.114;6.900;2023-08-07T06:43:26;101053.78;;;14.75
37452;BMP280;23314;51.114;6.900;2023-08-07T06:45:55;101070.66;;;14.75
37452;BMP280;23314;51.114;6.900;2023-08-07T06:48:21;101070.66;;;14.75
37452;BMP280;23314;51.114;6.900;2023-08-07T06:50:47;101067.34;;;14.84
37452;BMP280;23314;51.114;6.900;2023-08-07T06:53:13;101076.91;;;14.85
37452;BMP280;23314;51.114;6.900;2023-08-07T06:55:38;101073.06;;;14.86
37452;BMP280;23314;51.114;6.900;2023-08-07T06:58:03;101076.16;;;14.84
37452;BMP280;23314;51.114;6.900;2023-08-07T07:00:29;101096.22;;;14.80
37452;BMP280;23314;51.114;6.900;2023-08-07T07:02:55;101074.69;;;14.67
37452;BMP280;23314;51.114;6.900;2023-08-07T07:05:20;101079.91;;;14.58
37452;BMP280;23314;51.114;6.900;2023-08-07T07:07:46;101088.56;;;14.49
37452;BMP280;23314;51.114;6.900;2023-08-07T07:10:12;101091.66;;;14.47
37452;BMP280;23314;51.114;6.900;2023-08-07T07:12:37;101087.53;;;14.43
37452;BMP280;23314;51.114;6.900;2023-08-07T07:15:03;101094.84;;;14.42
37452;BMP280;23314;51.114;6.900;2023-08-07T07:17:28;101087.31;;;14.37
37452;BMP280;23314;51.114;6.900;2023-08-07T07:19:53;101088.44;;;14.40
37452;BMP280;23314;51.114;6.900;2023-08-07T07:22:19;101096.78;;;14.42
37452;BMP280;23314;51.114;6.900;2023-08-07T07:24:44;101099.91;;;14.40
37452;BMP280;23314;51.114;6.900;2023-08-07T07:27:09;101113.31;;;14.40
37452;BMP280;23314;51.114;6.900;2023-08-07T07:29:35;101109.22;;;14.35
37452;BMP280;23314;51.114;6.900;2023-08-07T07:32:00;101108.78;;;14.37
37452;BMP280;23314;51.114;6.900;2023-08-07T07:34:25;101115.31;;;14.36
37452;BMP280;23314;51.114;6.900;2023-08-07T07:36:51;101112.63;;;14.36
37452;BMP280;23314;51.114;6.900;2023-08-07T07:39:18;101125.00;;;14.33
37452;BMP280;23314;51.114;6.900;2023-08-07T07:41:44;101118.84;;;14.33
37452;BMP280;23314;51.114;6.900;2023-08-07T07:44:09;101104.75;;;14.29
37452;BMP280;23314;51.114;6.900;2023-08-07T07:46:35;101124.75;;;14.28
37452;BMP280;23314;51.114;6.900;2023-08-07T07:49:00;101126.16;;;14.32
37452;BMP280;23314;51.114;6.900;2023-08-07T07:51:28;101127.22;;;14.35
37452;BMP280;23314;51.114;6.900;2023-08-07T07:53:54;101138.41;;;14.33
37452;BMP280;23314;51.114;6.900;2023-08-07T07:56:19;101150.97;;;14.36
37452;BMP280;23314;51.114;6.900;2023-08-07T07:58:45;101155.19;;;14.38
37452;BMP280;23314;51.114;6.900;2023-08-07T08:01:11;101157.44;;;14.39
37452;BMP280;23314;51.114;6.900;2023-08-07T08:03:36;101148.53;;;14.42
37452;BMP280;23314;51.114;6.900;2023-08-07T08:06:01;101159.63;;;14.44
37452;BMP280;23314;51.114;6.900;2023-08-07T08:08:26;101162.31;;;14.44
37452;BMP280;23314;51.114;6.900;2023-08-07T08:10:52;101173.41;;;14.46
37452;BMP280;23314;51.114;6.900;2023-08-07T08:13:17;101166.00;;;14.50
37452;BMP280;23314;51.114;6.900;2023-08-07T08:15:44;101177.09;;;14.52
37452;BMP280;23314;51.114;6.900;2023-08-07T08:18:10;101180.41;;;14.57
37452;BMP280;23314;51.114;6.900;2023-08-07T08:20:36;101184.00;;;14.66
37452;BMP280;23314;51.114;6.900;2023-08-07T08:23:01;101209.66;;;14.71
37452;BMP280;23314;51.114;6.900;2023-08-07T08:25:26;101197.28;;;14.74
37452;BMP280;23314;51.114;6.900;2023-08-07T08:27:52;101207.63;;;14.75
37452;BMP280;23314;51.114;6.900;2023-08-07T08:30:17;101230.69;;;14.73
37452;BMP280;23314;51.114;6.900;2023-08-07T08:32:43;101210.34;;;14.72
37452;BMP280;23314;51.114;6.900;2023-08-07T08:35:08;101220.69;;;14.73
37452;BMP280;23314;51.114;6.900;2023-08-07T08:37:33;101224.56;;;14.72
37452;BMP280;23314;51.114;6.900;2023-08-07T08:39:59;101236.75;;;14.77
37452;BMP280;23314;51.114;6.900;2023-08-07T08:42:24;101227.41;;;14.81
37452;BMP280;23314;51.114;6.900;2023-08-07T08:44:55;101241.59;;;14.82
37452;BMP280;23314;51.114;6.900;2023-08-07T08:47:22;101248.56;;;14.79
37452;BMP280;23314;51.114;6.900;2023-08-07T08:49:54;101249.41;;;14.76
37452;BMP280;23314;51.114;6.900;2023-08-07T08:52:22;101242.78;;;14.81
37452;BMP280;23314;51.114;6.900;2023-08-07T08:54:48;101241.75;;;14.91
37452;BMP280;23314;51.114;6.900;2023-08-07T08:57:14;101244.38;;;14.95
37452;BMP280;23314;51.114;6.900;2023-08-07T08:59:41;101248.59;;;14.96
37452;BMP280;23314;51.114;6.900;2023-08-07T09:02:08;101249.50;;;14.89
37452;BMP280;23314;51.114;6.900;2023-08-07T09:04:33;101252.25;;;14.85
37452;BMP280;23314;51.114;6.900;2023-08-07T09:07:00;101258.91;;;14.81
37452;BMP280;23314;51.114;6.900;2023-08-07T09:09:26;101266.59;;;14.79
37452;BMP280;23314;51.114;6.900;2023-08-07T09:11:54;101249.66;;;14.82
37452;BMP280;23314;51.114;6.900;2023-08-07T09:14:24;101236.22;;;14.98
37452;BMP280;23314;51.114;6.900;2023-08-07T09:16:51;101253.03;;;15.32
37452;BMP280;23314;51.114;6.900;2023-08-07T09:19:17;101248.59;;;15.54
37452;BMP280;23314;51.114;6.900;2023-08-07T09:21:42;101250.09;;;15.85
37452;BMP280;23314;51.114;6.900;2023-08-07T09:24:08;101254.09;;;16.19
37452;BMP280;23314;51.114;6.900;2023-08-07T09:26:33;101261.63;;;16.50
37452;BMP280;23314;51.114;6.900;2023-08-07T09:28:59;101265.38;;;16.78
37452;BMP280;23314;51.114;6.900;2023-08-07T09:31:25;101271.03;;;16.93
37452;BMP280;23314;51.114;6.900;2023-08-07T09:33:54;101268.25;;;17.19
37452;BMP280;23314;51.114;6.900;2023-08-07T09:36:19;101264.13;;;17.49
37452;BMP280;23314;51.114;6.900;2023-08-07T09:38:49;101270.19;;;17.53
37452;BMP280;23314;51.114;6.900;2023-08-07T09:41:17;101266.91;;;17.59
37452;BMP280;23314;51.114;6.900;2023-08-07T09:43:43;101268.00;;;17.70
37452;BMP280;23314;51.114;6.900;2023-08-07T09:46:08;101272.06;;;17.75
37452;BMP280;23314;51.114;6.900;2023-08-07T09:48:42;101272.56;;;17.83
37452;BMP280;23314;51.114;6.900;2023-08-07T09:51:08;101262.16;;;17.94
37452;BMP280;23314;51.114;6.900;2023-08-07T09:53:33;101276.84;;;17.93
37452;BMP280;23314;51.114;6.900;2023-08-07T09:55:59;101279.53;;;17.93
37452;BMP280;23314;51.114;6.900;2023-08-07T09:58:24;101290.97;;;17.97
37452;BMP280;23314;51.114;6.900;2023-08-07T10:00:51;101288.16;;;18.10
37452;BMP280;23314;51.114;6.900;2023-08-07T10:03:19;101294.03;;;18.18
37452;BMP280;23314;51.114;6.900;2023-08-07T10:05:44;101286.63;;;18.50
37452;BMP280;23314;51.114;6.900;2023-08-07T10:08:11;101292.38;;;18.80
37452;BMP280;23314;51.114;6.900;2023-08-07T10:10:38;101287.72;;;18.89
37452;BMP280;23314;51.114;6.900;2023-08-07T10:13:04;101286.81;;;18.92
37452;BMP280;23314;51.114;6.900;2023-08-07T10:15:31;101285.03;;;18.89
37452;BMP280;23314;51.114;6.900;2023-08-07T10:17:58;101285.78;;;18.90
37452;BMP280;23314;51.114;6.900;2023-08-07T10:20:27;101276.78;;;18.93
37452;BMP280;23314;51.114;6.900;2023-08-07T10:22:57;101288.00;;;18.91
37452;BMP280;23314;51.114;6.900;2023-08-07T10:25:25;101283.38;;;19.01
37452;BMP280;23314;51.114;6.900;2023-08-07T10:27:53;101271.94;;;19.06
37452;BMP280;23314;51.114;6.900;2023-08-07T10:30:21;101282.59;;;19.19
37452;BMP280;23314;51.114;6.900;2023-08-07T10:32:47;101278.41;;;19.28
37452;BMP280;23314;51.114;6.900;2023-08-07T10:35:23;101266.50;;;19.25
37452;BMP280;23314;51.114;6.900;2023-08-07T10:37:50;101295.38;;;19.28
37452;BMP280;23314;51.114;6.900;2023-08-07T10:40:16;101282.00;;;19.15
37452;BMP280;23314;51.114;6.900;2023-08-07T10:45:21;101283.50;;;19.35
37452;BMP280;23314;51.114;6.900;2023-08-07T10:48:06;101276.28;;;19.50
37452;BMP280;23314;51.114;6.900;2023-08-07T10:50:34;101278.19;;;19.68
37452;BMP280;23314;51.114;6.900;2023-08-07T10:53:01;101270.41;;;19.85
37452;BMP280;23314;51.114;6.900;2023-08-07T10:55:31;101282.00;;;20.19
37452;BMP280;23314;51.114;6.900;2023-08-07T10:57:56;101267.72;;;20.43
37452;BMP280;23314;51.114;6.900;2023-08-07T11:00:25;101269.00;;;20.72
37452;BMP280;23314;51.114;6.900;2023-08-07T11:02:52;101281.84;;;21.01
37452;BMP280;23314;51.114;6.900;2023-08-07T11:05:18;101290.56;;;21.05
37452;BMP280;23314;51.114;6.900;2023-08-07T11:07:45;101271.00;;;21.01
37452;BMP280;23314;51.114;6.900;2023-08-07T11:10:13;101270.94;;;21.10
37452;BMP280;23314;51.114;6.900;2023-08-07T11:12:42;101281.59;;;21.44
37452;BMP280;23314;51.114;6.900;2023-08-07T11:15:12;101288.66;;;21.56
37452;BMP280;23314;51.114;6.900;2023-08-07T11:17:37;101290.47;;;21.44
37452;BMP280;23314;51.114;6.900;2023-08-07T11:20:03;101281.38;;;21.47
37452;BMP280;23314;51.114;6.900;2023-08-07T11:22:29;101281.47;;;21.53
37452;BMP280;23314;51.114;6.900;2023-08-07T11:24:55;101272.13;;;21.39
37452;BMP280;23314;51.114;6.900;2023-08-07T11:27:21;101298.25;;;21.37
37452;BMP280;23314;51.114;6.900;2023-08-07T11:29:48;101276.53;;;21.22
37452;BMP280;23314;51.114;6.900;2023-08-07T11:32:14;101290.59;;;21.20
37452;BMP280;23314;51.114;6.900;2023-08-07T11:34:40;101286.53;;;21.15
37452;BMP280;23314;51.114;6.900;2023-08-07T11:37:05;101275.78;;;21.06
37452;BMP280;23314;51.114;6.900;2023-08-07T11:39:31;101285.78;;;21.15
37452;BMP280;23314;51.114;6.900;2023-08-07T11:41:56;101267.00;;;21.11
37452;BMP280;23314;51.114;6.900;2023-08-07T11:44:22;101278.59;;;21.12
37452;BMP280;23314;51.114;6.900;2023-08-07T11:46:50;101292.63;;;20.95
37452;BMP280;23314;51.114;6.900;2023-08-07T11:49:15;101285.59;;;21.04
37452;BMP280;23314;51.114;6.900;2023-08-07T11:51:41;101292.09;;;21.21
37452;BMP280;23314;51.114;6.900;2023-08-07T11:54:06;101280.75;;;21.38
37452;BMP280;23314;51.114;6.900;2023-08-07T11:56:32;101299.09;;;21.58
37452;BMP280;23314;51.114;6.900;2023-08-07T11:58:57;101285.44;;;21.88
37452;BMP280;23314;51.114;6.900;2023-08-07T12:01:24;101282.75;;;22.08
37452;BMP280;23314;51.114;6.900;2023-08-07T12:04:08;101299.31;;;22.10
37452;BMP280;23314;51.114;6.900;2023-08-07T12:06:35;101279.84;;;22.12
37452;BMP280;23314;51.114;6.900;2023-08-07T12:09:02;101281.53;;;22.30
37452;BMP280;23314;51.114;6.900;2023-08-07T12:11:30;101275.66;;;22.37
37452;BMP280;23314;51.114;6.900;2023-08-07T12:13:56;101295.13;;;22.30
37452;BMP280;23314;51.114;6.900;2023-08-07T12:16:21;101299.88;;;22.35
37452;BMP280;23314;51.114;6.900;2023-08-07T12:18:49;101283.22;;;22.48
37452;BMP280;23314;51.114;6.900;2023-08-07T12:21:16;101295.53;;;22.69
37452;BMP280;23314;51.114;6.900;2023-08-07T12:23:43;101286.78;;;22.60
37452;BMP280;23314;51.114;6.900;2023-08-07T12:26:09;101290.66;;;22.53
37452;BMP280;23314;51.114;6.900;2023-08-07T12:28:35;101274.25;;;22.42
37452;BMP280;23314;51.114;6.900;2023-08-07T12:31:01;101289.53;;;22.39
37452;BMP280;23314;51.114;6.900;2023-08-07T12:33:28;101300.75;;;22.26
37452;BMP280;23314;51.114;6.900;2023-08-07T12:35:53;101289.00;;;22.14
37452;BMP280;23314;51.114;6.900;2023-08-07T12:38:19;101283.38;;;22.18
37452;BMP280;23314;51.114;6.900;2023-08-07T12:40:44;101299.31;;;22.10
37452;BMP280;23314;51.114;6.900;2023-08-07T12:43:10;101298.84;;;21.91
37452;BMP280;23314;51.114;6.900;2023-08-07T12:45:36;101301.69;;;21.67
37452;BMP280;23314;51.114;6.900;2023-08-07T12:48:02;101289.22;;;21.60
37452;BMP280;23314;51.114;6.900;2023-08-07T12:50:28;101285.94;;;21.71
37452;BMP280;23314;51.114;6.900;2023-08-07T12:52:53;101297.03;;;21.88
37452;BMP280;23314;51.114;6.900;2023-08-07T12:55:18;101296.47;;;22.19
37452;BMP280;23314;51.114;6.900;2023-08-07T12:57:45;101274.44;;;22.38
37452;BMP280;23314;51.114;6.900;2023-08-07T13:00:11;101283.38;;;22.65
37452;BMP280;23314;51.114;6.900;2023-08-07T13:02:44;101290.75;;;22.85
37452;BMP280;23314;51.114;6.900;2023-08-07T13:05:10;101289.72;;;23.03
37452;BMP280;23314;51.114;6.900;2023-08-07T13:07:39;101288.16;;;23.28
37452;BMP280;23314;51.114;6.900;2023-08-07T13:10:06;101293.28;;;23.52
37452;BMP280;23314;51.114;6.900;2023-08-07T13:12:35;101288.84;;;23.60
37452;BMP280;23314;51.114;6.900;2023-08-07T13:15:00;101301.63;;;23.80
37452;BMP280;23314;51.114;6.900;2023-08-07T13:17:26;101304.56;;;23.77
37452;BMP280;23314;51.114;6.900;2023-08-07T13:19:51;101307.66;;;23.58
37452;BMP280;23314;51.114;6.900;2023-08-07T13:22:16;101320.88;;;23.34
37452;BMP280;23314;51.114;6.900;2023-08-07T13:24:41;101322.63;;;23.05
37452;BMP280;23314;51.114;6.900;2023-08-07T13:27:07;101315.31;;;22.90
37452;BMP280;23314;51.114;6.900;2023-08-07T13:29:32;101320.69;;;22.85
37452;BMP280;23314;51.114;6.900;2023-08-07T13:31:58;101305.13;;;22.65
37452;BMP280;23314;51.114;6.900;2023-08-07T13:34:23;101295.31;;;22.47
37452;BMP280;23314;51.114;6.900;2023-08-07T13:36:49;101303.34;;;22.35
37452;BMP280;23314;51.114;6.900;2023-08-07T13:39:14;101305.50;;;22.31
37452;BMP280;23314;51.114;6.900;2023-08-07T13:41:40;101304.31;;;22.32
37452;BMP280;23314;51.114;6.900;2023-08-07T13:44:05;101308.81;;;22.20
37452;BMP280;23314;51.114;6.900;2023-08-07T13:46:30;101311.19;;;22.13
37452;BMP280;23314;51.114;6.900;2023-08-07T13:48:55;101306.72;;;22.10
37452;BMP280;23314;51.114;6.900;2023-08-07T13:51:21;101316.28;;;22.05
37452;BMP280;23314;51.114;6.900;2023-08-07T13:53:46;101305.72;;;22.28
37452;BMP280;23314;51.114;6.900;2023-08-07T13:56:11;101305.03;;;22.53
37452;BMP280;23314;51.114;6.900;2023-08-07T13:58:41;101295.94;;;22.83
37452;BMP280;23314;51.114;6.900;2023-08-07T14:01:07;101292.44;;;23.08
37452;BMP280;23314;51.114;6.900;2023-08-07T14:03:34;101288.59;;;23.21